Hovedside
METAR-TAF:

METAR-TAF

Lufthavner :

Bujumbura internasjonale lufthavn

Bujumbura, Burundi

breddegrad: 03-19S, lengdegrad: 029-19E, høyde over havet: 782 m

Gjeldene værobservasjon

Denne rapporten ble laget for 1 time og 3 minutter siden, klokken 15:00 UTC
Vind 14 kt fra Sør
Temperatur 28°C
Luftfuktighet 45%
Trykk 1013 hPa
Sikt 10 km eller mer
Få skyer i en høyde av 2500 ft

METAR: HBBA 191500Z 18014KT 9999 FEW025 28/15 Q1013 NOSIG

Tid: 18:03 (16:03 UTC)

Varsel

Denne rapporten ble laget for 5 timer og 3 minutter siden, klokken 11:00 UTC
Varsel gyldig fra 19. klokken 12 UTC til 20. klokken 18 UTC
Vind 10 kt fra Sør med vindkast opp mot 15 kt
Sikt: 9000 m
Få skyer i en høyde av 3000 ft
Få skyer i en høyde av 3000 ft

TAF: HBBA 191100Z 1912/2018 18010G15KT 9000 FEW030 BECMG1919/1920 VRB02KT CAVOK BECMG2002/2004 36003KT BECMG2004/2005 5000HZ BECMG2008/2009 18010G15KT 9000 FEW030

Værobservasjoner og værvarsel for over 4000 flyplasser (METAR- og TAF-rapporter).

Tilgjengelige stasjoner er representert av de røde og gule prikkene på kartet.

Hold musepekeren over prikken for å se navnet på stasjonen.

Klikk så for å se værobservasjoner og -varsler.

For å forandre kartet kan du klikke på den grønne knappen med svart kryss for å zoome inn, på den grønne knappen med strek for å zoome ut, eller på de grønne pilene for å se tilstøtende kart.


METAR-TAF: